createdAt,value
2019-05-14T00:02:41.378Z,43.00
2019-05-14T00:05:27.935Z,43.50
2019-05-14T00:08:13.995Z,43.70
2019-05-14T00:11:01.385Z,43.50
2019-05-14T00:13:47.998Z,43.50
2019-05-14T00:16:33.818Z,43.90
2019-05-14T00:19:21.540Z,44.50
2019-05-14T00:22:07.963Z,44.00
2019-05-14T00:24:54.348Z,44.50
2019-05-14T00:27:41.443Z,44.70
2019-05-14T00:30:28.115Z,44.90
2019-05-14T00:33:14.505Z,44.90
2019-05-14T00:36:02.087Z,45.50
2019-05-14T00:38:48.686Z,45.60
2019-05-14T00:41:35.298Z,45.90
2019-05-14T00:44:21.916Z,46.10
2019-05-14T00:47:08.261Z,46.50
2019-05-14T00:49:54.901Z,46.90
2019-05-14T00:52:44.224Z,47.50
2019-05-14T00:55:31.456Z,47.90
2019-05-14T00:58:17.618Z,48.20
2019-05-14T01:01:03.824Z,48.50
2019-05-14T01:03:51.912Z,48.60
2019-05-14T01:06:38.256Z,48.80
2019-05-14T01:09:24.554Z,49.10
2019-05-14T01:12:12.162Z,49.60
2019-05-14T01:15:09.571Z,49.60
2019-05-14T01:17:46.428Z,49.50
2019-05-14T01:20:33.158Z,49.60
2019-05-14T01:23:21.472Z,50.10
2019-05-14T01:26:07.345Z,50.00
2019-05-14T01:28:53.730Z,50.40
2019-05-14T01:31:41.791Z,50.50
2019-05-14T01:34:28.399Z,51.10
2019-05-14T01:37:14.779Z,50.80
2019-05-14T01:40:01.269Z,51.00
2019-05-14T01:42:47.593Z,51.50
2019-05-14T01:45:33.816Z,51.90
2019-05-14T01:48:21.978Z,52.30
2019-05-14T01:51:08.048Z,51.80
2019-05-14T01:53:54.579Z,52.30
2019-05-14T01:56:42.261Z,52.60
2019-05-14T01:59:28.777Z,53.50
2019-05-14T02:02:14.974Z,53.50
2019-05-14T02:05:02.153Z,53.20
2019-05-14T02:07:48.849Z,53.60
2019-05-14T02:10:35.075Z,53.70
2019-05-14T02:13:21.527Z,54.50
2019-05-14T02:16:08.184Z,54.60
2019-05-14T02:18:54.634Z,54.90
2019-05-14T02:21:42.555Z,55.00
2019-05-14T02:24:29.083Z,55.20
2019-05-14T02:27:15.416Z,55.40
2019-05-14T02:30:02.340Z,55.50
2019-05-14T02:32:49.780Z,55.90
2019-05-14T02:35:39.509Z,55.80
2019-05-14T02:38:24.188Z,56.60
2019-05-14T02:41:10.300Z,56.30
2019-05-14T02:43:59.418Z,56.50
2019-05-14T02:46:44.833Z,56.50
2019-05-14T02:49:31.490Z,56.60
2019-05-14T02:52:20.385Z,57.40
2019-05-14T02:55:09.177Z,57.40
2019-05-14T02:57:54.361Z,57.80
2019-05-14T03:00:41.027Z,57.80
2019-05-14T03:03:29.929Z,58.10
2019-05-14T03:06:15.798Z,59.10
2019-05-14T03:09:02.220Z,58.90
2019-05-14T03:11:48.682Z,59.40
2019-05-14T03:14:35.339Z,59.80
2019-05-14T03:17:21.847Z,60.40
2019-05-14T03:20:09.363Z,60.70
2019-05-14T03:23:07.586Z,60.30
2019-05-14T03:25:43.918Z,60.50
2019-05-14T03:28:30.801Z,61.10
2019-05-14T03:31:22.170Z,61.60
2019-05-14T03:34:05.118Z,62.60
2019-05-14T03:36:53.420Z,63.00
2019-05-14T03:39:40.174Z,64.30
2019-05-14T03:42:29.015Z,64.50
2019-05-14T03:45:14.739Z,64.70
2019-05-14T03:48:00.926Z,64.80
2019-05-14T03:50:49.547Z,65.50
2019-05-14T03:53:52.240Z,66.30
2019-05-14T03:56:23.410Z,66.70
2019-05-14T03:59:09.972Z,67.10
2019-05-14T04:01:59.652Z,67.40
2019-05-14T04:04:45.013Z,66.80
2019-05-14T04:07:31.805Z,67.30
2019-05-14T04:10:19.489Z,67.60
2019-05-14T04:13:09.043Z,68.00
2019-05-14T04:15:55.050Z,67.50
2019-05-14T04:18:41.569Z,67.90
2019-05-14T04:21:29.760Z,67.80
2019-05-14T04:24:20.045Z,67.90
2019-05-14T04:27:12.246Z,67.70
2019-05-14T04:29:58.947Z,68.30
2019-05-14T04:32:44.660Z,67.80
2019-05-14T04:35:31.069Z,68.10
2019-05-14T04:38:20.202Z,68.30
2019-05-14T04:41:05.462Z,67.50
2019-05-14T04:43:51.777Z,67.50
2019-05-14T04:46:39.465Z,67.70
2019-05-14T04:49:28.980Z,67.70
2019-05-14T04:52:13.673Z,67.00
2019-05-14T04:55:00.433Z,67.00
2019-05-14T04:57:49.816Z,66.90
2019-05-14T05:00:34.487Z,66.50
2019-05-14T05:03:20.992Z,66.80
2019-05-14T05:06:09.894Z,65.60
2019-05-14T05:08:55.217Z,65.50
2019-05-14T05:11:41.701Z,65.50
2019-05-14T05:14:29.668Z,65.60
2019-05-14T05:17:19.360Z,65.60
2019-05-14T05:20:05.833Z,65.70
2019-05-14T05:22:52.372Z,65.80
2019-05-14T05:25:38.910Z,65.50
2019-05-14T05:28:24.959Z,65.50
2019-05-14T05:31:11.477Z,65.50
2019-05-14T05:33:58.264Z,66.10
2019-05-14T05:36:44.425Z,66.10
2019-05-14T05:39:30.637Z,65.00
2019-05-14T05:42:18.808Z,64.80
2019-05-14T05:45:08.010Z,64.20
2019-05-14T05:47:58.213Z,65.50
2019-05-14T05:50:41.846Z,64.60
2019-05-14T05:53:28.899Z,64.70
2019-05-14T05:56:15.524Z,63.80
2019-05-14T05:59:01.715Z,64.60
2019-05-14T06:01:50.309Z,63.70
2019-05-14T06:04:36.131Z,64.00
2019-05-14T06:07:22.336Z,63.60
2019-05-14T06:10:08.928Z,63.10
2019-05-14T06:12:55.125Z,62.70
2019-05-14T06:15:47.862Z,61.80
2019-05-14T06:18:29.199Z,61.70
2019-05-14T06:21:15.561Z,61.20
2019-05-14T06:24:03.041Z,61.00
2019-05-14T06:26:49.531Z,60.50
2019-05-14T06:29:38.102Z,59.30
2019-05-14T06:32:23.535Z,59.90
2019-05-14T06:35:09.352Z,57.80
2019-05-14T06:37:57.867Z,57.80
2019-05-14T06:40:44.148Z,57.50
2019-05-14T06:43:30.499Z,57.10
2019-05-14T06:46:19.425Z,55.60
2019-05-14T06:49:05.150Z,56.70
2019-05-14T06:51:51.306Z,54.70
2019-05-14T06:54:38.674Z,53.40
2019-05-14T06:57:24.952Z,52.30
2019-05-14T07:00:11.649Z,50.50
2019-05-14T07:02:58.310Z,50.80
2019-05-14T07:05:44.655Z,49.70
2019-05-14T07:08:30.477Z,48.60
2019-05-14T07:11:18.893Z,48.20
2019-05-14T07:14:07.975Z,48.00
2019-05-14T07:16:52.533Z,47.90
2019-05-14T07:19:38.759Z,46.90
2019-05-14T07:22:25.099Z,46.40
2019-05-14T07:25:11.119Z,45.80
2019-05-14T07:27:58.281Z,45.10
2019-05-14T07:30:44.766Z,44.70
2019-05-14T07:33:31.269Z,43.70
2019-05-14T07:36:18.894Z,45.20
2019-05-14T07:39:09.037Z,44.60
2019-05-14T07:41:54.126Z,44.40
2019-05-14T07:44:39.986Z,43.70
2019-05-14T07:47:26.468Z,43.10
2019-05-14T07:50:13.223Z,41.50
2019-05-14T07:53:02.929Z,40.20
2019-05-14T07:55:49.306Z,40.00
2019-05-14T07:58:35.367Z,39.50
2019-05-14T08:01:21.842Z,38.60
2019-05-14T08:04:11.934Z,39.80
2019-05-14T08:06:58.731Z,39.20
2019-05-14T08:09:47.796Z,37.00
2019-05-14T08:12:33.944Z,36.80
2019-05-14T08:15:22.526Z,37.80
2019-05-14T08:18:08.763Z,36.60
2019-05-14T08:20:55.152Z,36.50
2019-05-14T08:23:41.237Z,35.80
2019-05-14T08:26:29.343Z,35.70
2019-05-14T08:29:17.986Z,35.00
2019-05-14T08:32:03.924Z,34.60
2019-05-14T08:34:50.500Z,34.50
2019-05-14T08:37:38.601Z,34.00
2019-05-14T08:40:24.295Z,33.50
2019-05-14T08:43:10.829Z,32.90
2019-05-14T08:45:58.705Z,33.80
2019-05-14T08:48:45.031Z,31.80
2019-05-14T08:51:31.145Z,32.60
2019-05-14T08:54:18.849Z,33.00
2019-05-14T08:57:05.181Z,31.30
2019-05-14T08:59:51.736Z,32.80
2019-05-14T09:02:39.276Z,31.60
2019-05-14T09:05:26.169Z,31.20
2019-05-14T09:08:13.283Z,31.90
2019-05-14T09:10:59.874Z,30.70
2019-05-14T09:13:48.853Z,29.10
2019-05-14T09:16:43.196Z,30.20
2019-05-14T09:19:22.228Z,30.00
2019-05-14T09:22:09.617Z,31.50
2019-05-14T09:24:56.174Z,30.10
2019-05-14T09:27:42.487Z,28.50
2019-05-14T09:30:29.207Z,28.50
2019-05-14T09:33:15.414Z,28.40
2019-05-14T09:36:14.688Z,28.50
2019-05-14T09:38:49.779Z,27.10
2019-05-14T09:41:36.112Z,27.70
2019-05-14T09:44:22.404Z,27.50
2019-05-14T09:47:08.768Z,27.50
2019-05-14T09:49:55.241Z,27.70
2019-05-14T09:52:41.574Z,27.80
2019-05-14T09:55:28.281Z,26.90
2019-05-14T09:58:14.661Z,25.90
2019-05-14T10:01:00.844Z,27.30
2019-05-14T10:03:49.556Z,26.40
2019-05-14T10:06:35.800Z,26.70
2019-05-14T10:09:22.250Z,26.40
2019-05-14T10:12:09.049Z,26.70
2019-05-14T10:14:55.843Z,26.90
2019-05-14T10:17:42.640Z,26.30
2019-05-14T10:20:40.374Z,26.20
2019-05-14T10:23:18.698Z,26.00
2019-05-14T10:26:04.295Z,26.60
2019-05-14T10:28:50.909Z,27.30
2019-05-14T10:31:39.579Z,26.80
2019-05-14T10:34:24.878Z,27.70
2019-05-14T10:37:11.474Z,26.60
2019-05-14T10:39:58.628Z,26.70
2019-05-14T10:42:45.276Z,27.00
2019-05-14T10:45:31.922Z,28.00
2019-05-14T10:48:18.674Z,27.70
2019-05-14T10:51:05.308Z,28.40
2019-05-14T10:53:51.759Z,29.50
2019-05-14T10:56:38.302Z,28.00
2019-05-14T10:59:24.813Z,27.40
2019-05-14T11:02:12.167Z,27.60
2019-05-14T11:04:58.757Z,27.70
2019-05-14T11:07:44.989Z,27.50
2019-05-14T11:10:31.518Z,27.40
2019-05-14T11:13:18.991Z,27.50
2019-05-14T11:16:08.399Z,25.60
2019-05-14T11:18:57.140Z,26.20
2019-05-14T11:21:41.669Z,28.40
2019-05-14T11:24:29.528Z,27.40
2019-05-14T11:27:18.477Z,28.00
2019-05-14T11:30:05.429Z,27.90
2019-05-14T11:34:10.942Z,28.90
2019-05-14T11:36:58.942Z,29.30
2019-05-14T11:39:48.549Z,29.40
2019-05-14T11:42:35.560Z,29.00
2019-05-14T11:45:23.092Z,28.50
2019-05-14T11:48:10.274Z,28.90
2019-05-14T11:50:59.497Z,29.10
2019-05-14T11:53:49.234Z,28.50
2019-05-14T11:56:35.677Z,28.40
2019-05-14T11:59:23.019Z,28.80
2019-05-14T12:02:10.205Z,28.30
2019-05-14T12:04:57.949Z,28.20
2019-05-14T12:07:45.086Z,28.10
2019-05-14T12:10:32.273Z,28.90
2019-05-14T12:13:19.502Z,28.40
2019-05-14T12:16:08.575Z,30.00
2019-05-14T12:18:55.353Z,28.70
2019-05-14T12:21:59.009Z,27.50
2019-05-14T12:24:31.283Z,26.80
2019-05-14T12:27:19.181Z,26.30
2019-05-14T12:30:10.407Z,25.90
2019-05-14T12:32:58.977Z,25.60
2019-05-14T12:35:49.430Z,25.50
2019-05-14T12:38:35.566Z,26.00
2019-05-14T12:41:22.327Z,26.40
2019-05-14T12:44:09.513Z,25.90
2019-05-14T12:46:58.736Z,26.10
2019-05-14T12:49:48.193Z,25.60
2019-05-14T12:52:34.944Z,25.00
2019-05-14T12:55:22.208Z,25.40
2019-05-14T12:58:09.662Z,26.90
2019-05-14T13:00:59.307Z,27.00
2019-05-14T13:03:45.530Z,27.20
2019-05-14T13:06:32.754Z,26.50
2019-05-14T13:09:21.726Z,26.70
2019-05-14T13:12:11.329Z,27.00
2019-05-14T13:14:57.896Z,25.50
2019-05-14T13:17:45.429Z,26.10
2019-05-14T13:20:32.593Z,26.00
2019-05-14T13:23:20.068Z,26.50
2019-05-14T13:26:10.631Z,27.10
2019-05-14T13:28:58.648Z,27.60
2019-05-14T13:31:45.272Z,25.00
2019-05-14T13:34:32.716Z,24.10
2019-05-14T13:37:20.026Z,23.10
2019-05-14T13:40:09.252Z,23.10
2019-05-14T13:42:56.236Z,23.90
2019-05-14T13:45:43.573Z,24.50
2019-05-14T13:48:30.763Z,25.20
2019-05-14T13:51:19.540Z,24.50
2019-05-14T13:54:08.554Z,23.40
2019-05-14T13:56:58.480Z,24.10
2019-05-14T13:59:45.091Z,22.50
2019-05-14T14:02:32.342Z,22.40
2019-05-14T14:05:20.299Z,24.20
2019-05-14T14:08:08.831Z,23.40
2019-05-14T14:11:02.169Z,22.70
2019-05-14T14:13:44.613Z,22.40
2019-05-14T14:16:31.740Z,23.10
2019-05-14T14:19:18.997Z,22.80
2019-05-14T14:22:05.686Z,22.40
2019-05-14T14:24:52.367Z,21.60
2019-05-14T14:27:41.031Z,21.70
2019-05-14T14:30:28.599Z,22.60
2019-05-14T14:33:18.324Z,21.50
2019-05-14T14:36:04.708Z,21.50
2019-05-14T14:38:51.741Z,21.10
2019-05-14T14:41:38.674Z,20.50
2019-05-14T14:44:25.820Z,20.80
2019-05-14T14:47:12.834Z,21.10
2019-05-14T14:50:00.337Z,22.50
2019-05-14T14:52:49.484Z,22.70
2019-05-14T14:55:39.713Z,23.50
2019-05-14T14:58:24.611Z,22.60
2019-05-14T15:01:11.233Z,20.80
2019-05-14T15:03:59.968Z,20.50
2019-05-14T15:06:50.454Z,21.40
2019-05-14T15:09:35.429Z,21.60
2019-05-14T15:12:22.276Z,22.00
2019-05-14T15:15:09.414Z,23.30
2019-05-14T15:17:56.215Z,23.80
2019-05-14T15:20:42.924Z,23.50
2019-05-14T15:23:30.074Z,21.80
2019-05-14T15:26:19.391Z,21.00
2019-05-14T15:29:05.628Z,20.40
2019-05-14T15:31:52.504Z,19.60
2019-05-14T15:34:39.680Z,19.80
2019-05-14T15:37:28.612Z,21.00
2019-05-14T15:40:22.097Z,22.10
2019-05-14T15:43:04.721Z,24.10
2019-05-14T15:45:51.678Z,21.90
2019-05-14T15:48:39.682Z,22.00
2019-05-14T15:51:28.591Z,21.70
2019-05-14T15:54:35.098Z,21.40
2019-05-14T15:57:04.360Z,22.30
2019-05-14T15:59:51.964Z,23.20
2019-05-14T16:02:39.976Z,24.40
2019-05-14T16:05:28.502Z,25.10
2019-05-14T16:08:22.187Z,25.30
2019-05-14T16:11:05.973Z,25.70
2019-05-14T16:13:53.638Z,26.20
2019-05-14T16:16:41.106Z,26.00
2019-05-14T16:22:03.593Z,26.50
2019-05-14T16:24:56.758Z,24.40
2019-05-14T16:27:40.057Z,22.90
2019-05-14T16:30:28.883Z,21.70
2019-05-14T16:33:18.516Z,21.00
2019-05-14T16:36:05.524Z,21.50
2019-05-14T16:38:52.965Z,21.10
2019-05-14T16:41:40.027Z,20.40
2019-05-14T16:44:28.327Z,19.70
2019-05-14T16:47:18.710Z,19.80
2019-05-14T16:50:09.719Z,19.50
2019-05-14T16:52:58.892Z,20.70
2019-05-14T16:55:45.693Z,21.70
2019-05-14T16:58:33.152Z,23.40
2019-05-14T17:01:20.440Z,24.50
2019-05-14T17:04:09.418Z,25.20
2019-05-14T17:06:58.915Z,26.60
2019-05-14T17:09:45.120Z,26.70
2019-05-14T17:12:48.498Z,27.60
2019-05-14T17:15:21.561Z,28.60
2019-05-14T17:18:09.042Z,28.90
2019-05-14T17:20:59.255Z,29.30
2019-05-14T17:23:45.467Z,29.60
2019-05-14T17:26:32.739Z,29.20
2019-05-14T17:29:19.872Z,29.30
2019-05-14T17:32:07.121Z,29.20
2019-05-14T17:34:54.777Z,30.00
2019-05-14T17:37:41.912Z,30.00
2019-05-14T17:40:29.115Z,30.00
2019-05-14T17:43:16.301Z,30.20
2019-05-14T17:46:03.702Z,30.80
2019-05-14T17:48:50.754Z,31.10
2019-05-14T17:51:39.038Z,31.80
2019-05-14T17:54:28.431Z,31.50
2019-05-14T17:57:15.157Z,32.00
2019-05-14T18:00:01.265Z,32.10
2019-05-14T18:02:48.699Z,31.70
2019-05-14T18:05:36.221Z,32.40
2019-05-14T18:08:23.454Z,32.80
2019-05-14T18:11:10.915Z,33.20
2019-05-14T18:13:59.162Z,33.50
2019-05-14T18:16:46.636Z,33.40
2019-05-14T18:19:34.092Z,34.10
2019-05-14T18:22:21.231Z,33.50
2019-05-14T18:25:08.694Z,33.90
2019-05-14T18:27:55.817Z,34.30
2019-05-14T18:30:43.224Z,34.70
2019-05-14T18:33:31.365Z,34.90
2019-05-14T18:36:19.173Z,34.80
2019-05-14T18:39:09.086Z,35.10
2019-05-14T18:41:55.515Z,35.30
2019-05-14T18:44:42.719Z,35.10
2019-05-14T18:47:30.360Z,35.10
2019-05-14T18:50:19.552Z,35.50
2019-05-14T18:53:08.676Z,36.10
2019-05-14T18:55:55.704Z,36.00
2019-05-14T18:58:41.800Z,36.60
2019-05-14T19:01:29.227Z,36.10
2019-05-14T19:04:18.421Z,37.10
2019-05-14T19:07:05.005Z,36.90
2019-05-14T19:09:51.088Z,37.70
2019-05-14T19:12:38.788Z,38.20
2019-05-14T19:15:26.066Z,38.60
2019-05-14T19:18:13.137Z,38.80
2019-05-14T19:20:59.798Z,39.10
2019-05-14T19:23:48.963Z,39.10
2019-05-14T19:26:37.755Z,39.90
2019-05-14T19:29:24.464Z,40.00
2019-05-14T19:32:10.532Z,40.70
2019-05-14T19:34:57.896Z,41.80
2019-05-14T19:37:44.951Z,41.80
2019-05-14T19:40:31.007Z,42.90
2019-05-14T19:43:19.106Z,43.50
2019-05-14T19:46:08.588Z,44.00
2019-05-14T19:48:54.937Z,45.20
2019-05-14T19:51:42.153Z,46.00
2019-05-14T19:54:29.519Z,46.10
2019-05-14T19:57:18.519Z,47.10
2019-05-14T20:00:09.134Z,48.40
2019-05-14T20:02:58.211Z,50.20
2019-05-14T20:05:45.951Z,51.80
2019-05-14T20:08:33.175Z,53.50
2019-05-14T20:11:19.463Z,54.40
2019-05-14T20:14:06.390Z,54.30
2019-05-14T20:16:53.650Z,55.40
2019-05-14T20:19:39.813Z,55.90
2019-05-14T20:22:28.380Z,57.20
2019-05-14T20:25:15.214Z,60.80
2019-05-14T20:28:01.880Z,64.30
2019-05-14T20:30:49.380Z,62.40
2019-05-14T20:33:36.919Z,66.40
2019-05-14T20:36:23.938Z,66.30
2019-05-14T20:39:11.035Z,66.00
2019-05-14T20:41:58.484Z,68.80
2019-05-14T20:44:45.192Z,69.80
2019-05-14T20:47:32.330Z,69.40
2019-05-14T20:50:19.511Z,70.80
2019-05-14T20:53:08.469Z,70.70
2019-05-14T20:55:55.514Z,69.50
2019-05-14T20:58:42.621Z,70.00
2019-05-14T21:01:29.803Z,72.00
2019-05-14T21:04:18.943Z,73.60
2019-05-14T21:07:05.621Z,74.60
2019-05-14T21:09:52.564Z,74.60
2019-05-14T21:12:39.952Z,75.10
2019-05-14T21:15:28.652Z,74.20
2019-05-14T21:18:18.762Z,75.80
2019-05-14T21:21:04.933Z,75.80
2019-05-14T21:23:52.137Z,74.90
2019-05-14T21:26:40.069Z,78.40
2019-05-14T21:29:30.334Z,78.40
2019-05-14T21:32:16.220Z,78.00
2019-05-14T21:35:04.144Z,79.90
2019-05-14T21:37:51.402Z,80.00
2019-05-14T21:40:39.118Z,80.60
2019-05-14T21:43:28.951Z,80.50
2019-05-14T21:46:15.100Z,80.80
2019-05-14T21:49:01.219Z,81.60
2019-05-14T21:51:51.319Z,82.30
2019-05-14T21:54:39.545Z,82.10
2019-05-14T21:57:28.272Z,81.90
2019-05-14T22:00:31.764Z,82.00
2019-05-14T22:03:20.869Z,82.80
2019-05-14T22:06:08.863Z,82.80
2019-05-14T22:08:56.180Z,82.50
2019-05-14T22:11:43.917Z,83.50
2019-05-14T22:14:31.238Z,82.40
2019-05-14T22:17:18.344Z,82.90
2019-05-14T22:20:08.239Z,82.40
2019-05-14T22:22:55.836Z,82.70
2019-05-14T22:25:43.200Z,82.90
2019-05-14T22:28:30.316Z,82.50
2019-05-14T22:31:19.257Z,82.80
2019-05-14T22:34:08.946Z,83.20
2019-05-14T22:36:57.937Z,83.40
2019-05-14T22:39:44.273Z,83.60
2019-05-14T22:42:30.323Z,82.80
2019-05-14T22:45:18.562Z,82.80
2019-05-14T22:48:05.756Z,82.90
2019-05-14T22:50:53.072Z,83.50
2019-05-14T22:53:40.251Z,82.60
2019-05-14T22:56:28.064Z,82.90
2019-05-14T22:59:14.249Z,81.20
2019-05-14T23:02:01.145Z,81.70
2019-05-14T23:04:49.235Z,82.20
2019-05-14T23:07:38.389Z,82.20
2019-05-14T23:10:24.940Z,83.50
2019-05-14T23:13:12.148Z,84.50
2019-05-14T23:15:58.853Z,83.60
2019-05-14T23:18:45.828Z,82.20
2019-05-14T23:21:33.345Z,82.70
2019-05-14T23:24:20.791Z,83.20
2019-05-14T23:27:08.323Z,83.10
2019-05-14T23:29:55.343Z,83.20
2019-05-14T23:32:42.700Z,83.10
2019-05-14T23:35:30.517Z,82.20
2019-05-14T23:38:19.068Z,81.60
2019-05-14T23:41:08.456Z,81.90
2019-05-14T23:43:55.006Z,82.20
2019-05-14T23:46:42.117Z,81.60
2019-05-14T23:49:29.627Z,81.00
2019-05-14T23:52:19.180Z,81.80
2019-05-14T23:55:08.610Z,81.20
2019-05-14T23:57:55.920Z,82.00
